»·PEaware :: DAL4243 KSFO-KSNA

DAL4243 :: KSFO-KSNA

FLIGHT INFORMATION

Flight Status: Arrived
Operator:
Delta Air Lines
More flights by this operator :: More flights under this callsign
Pilot: Sean B. (13609)
Aircraft: BOEING 757-200
(B752)
More flights by this aircraft type
Origin: KSFO San Francisco Intl
United States
Destination: KSNA John Wayne-Orange Co
United States
More flights between these airports :: More routes between these airports
Route: +OFFSH1 SXC SLI
File this flight plan on PilotEdge
Remarks:
Altitude:
(Current/Filed)
31,000ft
Speed:
(Current/Filed)
430kts
Departed: 09-Jan-17 12:14 PM
Arrived: 09-Jan-17 01:31 PM
Distance/Time
Traveled:
323nm/1:17
Distance/Time
To Go:
Arrived

Flight Plot

Page will automatically refresh every two minutes.


Map Options




Map Legend


Flown Route
Filed Route
Departure Airport
Arrival Airport
Navaid (VOR, NDB)
Fix

Horizontal Profiles

Position Reports

Time Latitude Longitude Heading Altitude Ground
Speed
09-Jan-17 11:46 37.614307 -122.382761 27 34ft 0kts
09-Jan-17 11:47 37.614307 -122.382761 27 34ft 0kts
09-Jan-17 11:48 37.614307 -122.382761 27 34ft 0kts
09-Jan-17 11:49 37.614307 -122.382761 27 34ft 0kts
09-Jan-17 11:50 37.614307 -122.382761 27 34ft 0kts
09-Jan-17 11:51 37.614307 -122.382761 27 34ft 0kts
09-Jan-17 11:52 37.614307 -122.382761 27 34ft 0kts
09-Jan-17 11:53 37.614307 -122.382761 27 34ft 0kts
09-Jan-17 11:54 37.614307 -122.382761 27 34ft 0kts
09-Jan-17 11:55 37.614307 -122.382761 27 34ft 0kts
09-Jan-17 11:56 37.614307 -122.382761 27 34ft 0kts
09-Jan-17 11:57 37.614307 -122.382761 27 34ft 0kts
09-Jan-17 11:58 37.614307 -122.382761 27 34ft 0kts
09-Jan-17 11:59 37.614308 -122.382760 27 34ft 0kts
09-Jan-17 12:00 37.613865 -122.383083 65 34ft 1kts
09-Jan-17 12:01 37.613872 -122.383243 118 35ft 0kts
09-Jan-17 12:02 37.613872 -122.383243 118 35ft 0kts
09-Jan-17 12:03 37.613872 -122.383243 118 35ft 0kts
09-Jan-17 12:04 37.613872 -122.383243 118 35ft 0kts
09-Jan-17 12:05 37.613853 -122.383197 118 35ft 2kts
09-Jan-17 12:06 37.613655 -122.382727 118 34ft 0kts
09-Jan-17 12:07 37.613655 -122.382727 118 34ft 0kts
09-Jan-17 12:08 37.613655 -122.382727 118 34ft 0kts
09-Jan-17 12:09 37.612380 -122.382454 207 35ft 12kts
09-Jan-17 12:10 37.610007 -122.384100 215 34ft 8kts
09-Jan-17 12:11 37.608943 -122.383485 122 34ft 0kts
09-Jan-17 12:12 37.608943 -122.383485 122 34ft 0kts
09-Jan-17 12:13 37.608684 -122.382842 106 33ft 8kts
09-Jan-17 12:14 37.617723 -122.376414 27 28ft 153kts
09-Jan-17 12:15 37.661563 -122.362581 359 2024ft 204kts
09-Jan-17 12:16 37.712985 -122.388067 280 4293ft 239kts
09-Jan-17 12:17 37.688075 -122.447626 233 7950ft 227kts
09-Jan-17 12:18 37.655063 -122.505075 237 10680ft 250kts
09-Jan-17 12:19 37.623527 -122.564545 239 11975ft 307kts
09-Jan-17 12:20 37.584156 -122.638580 240 15034ft 313kts
09-Jan-17 12:21 37.538025 -122.723772 231 17734ft 332kts
09-Jan-17 12:22 37.449787 -122.752807 176 20173ft 404kts
09-Jan-17 12:23 37.353421 -122.687330 164 22248ft 436kts
09-Jan-17 12:24 37.268126 -122.652852 177 23784ft 429kts
09-Jan-17 12:25 37.144251 -122.617314 179 25674ft 444kts
09-Jan-17 12:26 37.027410 -122.586276 179 27266ft 456kts
09-Jan-17 12:27 36.907080 -122.555310 180 28850ft 464kts
09-Jan-17 12:28 36.808889 -122.530833 180 30322ft 463kts
09-Jan-17 12:29 36.690247 -122.500320 180 30997ft 467kts
09-Jan-17 12:30 36.547307 -122.462699 180 31003ft 468kts
09-Jan-17 12:31 36.441332 -122.427043 164 31006ft 492kts
09-Jan-17 12:32 36.372700 -122.365345 141 31011ft 523kts
09-Jan-17 12:33 36.293767 -122.245645 137 30986ft 528kts
09-Jan-17 12:34 36.188664 -122.091606 137 30988ft 527kts
09-Jan-17 12:35 36.096121 -121.957543 137 30993ft 528kts
09-Jan-17 12:36 36.018902 -121.846144 137 30993ft 528kts
09-Jan-17 12:37 35.927777 -121.715113 137 31002ft 521kts
09-Jan-17 12:38 35.840789 -121.590589 138 31000ft 520kts
09-Jan-17 12:39 35.751028 -121.462533 138 31057ft 521kts
09-Jan-17 12:40 35.665299 -121.340693 138 31050ft 527kts
09-Jan-17 12:41 35.576103 -121.214305 138 31039ft 520kts
09-Jan-17 12:42 35.485782 -121.090470 147 31040ft 510kts
09-Jan-17 12:43 35.386324 -121.006051 156 31054ft 497kts
09-Jan-17 12:44 35.276704 -120.919489 157 31057ft 497kts
09-Jan-17 12:45 35.161788 -120.829160 157 31058ft 501kts
09-Jan-17 12:46 35.049747 -120.741541 157 31053ft 500kts
09-Jan-17 12:47 34.939753 -120.655714 157 31067ft 492kts
09-Jan-17 12:48 34.831919 -120.571822 157 31063ft 492kts
09-Jan-17 12:49 34.734968 -120.496571 157 31047ft 494kts
09-Jan-17 12:50 34.636925 -120.420238 157 30862ft 495kts
09-Jan-17 12:51 34.535168 -120.342055 157 30858ft 496kts
09-Jan-17 12:52 34.431730 -120.262526 158 30862ft 495kts
09-Jan-17 12:53 34.343645 -120.195001 157 31029ft 487kts
09-Jan-17 12:54 34.250862 -120.109203 138 30844ft 509kts
09-Jan-17 12:55 34.180379 -119.977561 127 29294ft 525kts
09-Jan-17 12:56 34.112084 -119.842913 127 27638ft 511kts
09-Jan-17 12:57 34.042433 -119.706202 128 25946ft 496kts
09-Jan-17 12:58 33.979662 -119.583501 129 24296ft 484kts
09-Jan-17 12:59 33.928650 -119.484111 129 22837ft 478kts
09-Jan-17 13:00 33.865813 -119.361880 128 21364ft 454kts
09-Jan-17 13:01 33.805604 -119.245233 129 19006ft 431kts
09-Jan-17 13:02 33.745614 -119.128431 127 16684ft 423kts
09-Jan-17 13:03 33.690273 -119.021057 126 14493ft 400kts
09-Jan-17 13:04 33.640965 -118.926709 126 12676ft 384kts
09-Jan-17 13:05 33.590384 -118.829909 125 10995ft 370kts
09-Jan-17 13:06 33.547511 -118.747752 125 10994ft 370kts
09-Jan-17 13:07 33.510985 -118.678107 126 10993ft 370kts
09-Jan-17 13:08 33.469867 -118.599924 126 10993ft 369kts
09-Jan-17 13:09 33.430016 -118.524319 126 10995ft 369kts
09-Jan-17 13:10 33.405647 -118.449027 92 11003ft 379kts
09-Jan-17 13:11 33.431706 -118.365018 41 10871ft 364kts
09-Jan-17 13:12 33.487763 -118.303070 41 9956ft 314kts
09-Jan-17 13:13 33.541129 -118.236197 41 8717ft 308kts
09-Jan-17 13:14 33.589092 -118.175815 41 7650ft 302kts
09-Jan-17 13:15 33.630806 -118.122508 41 6684ft 294kts
09-Jan-17 13:16 33.674368 -118.066255 41 5775ft 272kts
09-Jan-17 13:17 33.714013 -118.014582 41 5124ft 266kts
09-Jan-17 13:18 33.744852 -117.974402 41 4626ft 261kts
09-Jan-17 13:19 33.775876 -117.934015 41 4118ft 256kts
09-Jan-17 13:20 33.814192 -117.884347 41 3983ft 254kts
09-Jan-17 13:21 33.847385 -117.841297 41 3980ft 253kts
09-Jan-17 13:22 33.876639 -117.803281 41 3983ft 255kts
09-Jan-17 13:23 33.899642 -117.754015 90 3992ft 269kts
09-Jan-17 13:24 33.865960 -117.710242 181 4015ft 255kts
09-Jan-17 13:25 33.826481 -117.737423 231 3988ft 215kts
09-Jan-17 13:26 33.796649 -117.773559 231 3771ft 209kts
09-Jan-17 13:27 33.771128 -117.808469 224 3135ft 188kts
09-Jan-17 13:28 33.742244 -117.826670 212 2600ft 187kts
09-Jan-17 13:29 33.713838 -117.844570 214 1032ft 173kts
09-Jan-17 13:30 33.687637 -117.861224 208 154ft 118kts
09-Jan-17 13:31 33.670615 -117.872015 206 67ft 28kts
09-Jan-17 13:32 33.670008 -117.869976 42 67ft 17kts
09-Jan-17 13:33 33.672768 -117.867645 40 68ft 18kts
09-Jan-17 13:34 33.676435 -117.864992 27 67ft 16kts
09-Jan-17 13:35 33.677581 -117.863510 116 68ft 1kts
09-Jan-17 13:36 33.677574 -117.863495 116 68ft 0kts
09-Jan-17 13:37 33.677574 -117.863495 116 68ft 0kts
09-Jan-17 13:38 33.677574 -117.863495 116 68ft 0kts
09-Jan-17 13:39 33.677574 -117.863495 116 68ft 0kts
09-Jan-17 13:40 33.677574 -117.863495 116 68ft 0kts
09-Jan-17 13:41 33.677574 -117.863495 116 68ft 0kts
09-Jan-17 13:42 33.677574 -117.863495 116 68ft 0kts
09-Jan-17 13:43 33.677574 -117.863495 116 68ft 0kts
09-Jan-17 13:44 33.677574 -117.863495 116 68ft 0kts
09-Jan-17 13:45 33.677574 -117.863495 116 68ft 0kts

Navigation Log

Ident Type
1. KSFO Airport
2. MCKEY Fix
3. DAISY Fix
4. SXC Navaid
5. SLI Navaid
6. KSNA Airport